Nearby METAR Reports

 

RPLL - Ninoy Aquino Int, Philippines
Distance from station: S 15km
Updated: 01/27/2021 11:00pm
Mostly cloudy
Mostly cloudy
 Wind from E
Wind: E 4 km/h
Temperature: 25°C
Dew Point: 24°C
Humidity: 94%
Barometer: 1012 hPa
Clouds: Mostly cloudy
Visibility: 10 km
Cloud details: Few Clouds 762 m
Mostly cloudy 3048 m
2021/01/27 15:00 RPLL 271500Z 08002KT 9999 FEW025 BKN100 25/24 Q1012 NOSIG RMK A2988
RPLC - Angeles/Pampanga, Philippines
Distance from station: NW 71km
Updated: 01/27/2021 4:00am
NOT Current
Partly cloudy
Partly cloudy
 Wind from NW
Wind: NW 7 km/h
Temperature: 25°C
Dew Point: 23°C
Humidity: 89%
Barometer: 1010 hPa
Clouds: Partly cloudy
Visibility: 8 km
Cloud details: Few Clouds 610 m
Partly cloudy 9144 m
2021/01/26 20:00 RPLC 262000Z 32004KT 8000 FEW020 SCT300 25/23 Q1010 NOSIG RMK A2983
 
RPLB - Olongapo/Subic, Philippines
Distance from station: WNW 78km
Updated: 01/27/2021 11:00pm
Mostly cloudy
Mostly cloudy
 Wind from NE
Wind: NE 7 km/h
Temperature: 25°C
Dew Point: 22°C
Humidity: 83%
Barometer: 1012 hPa
Clouds: Mostly cloudy
Visibility: 10 km
Cloud details: Few Clouds 610 m
Mostly cloudy 2438 m
2021/01/27 15:00 RPLB 271500Z 05004KT 9999 FEW020 BKN080 25/22 Q1012 NOSIG RMK A2988
RPMR - Romblon/Tablas I, Philippines
Distance from station: SSE 270km
Updated: 01/27/2021 11:43pm
unable to load RPMR data RC=
unable to load RPMR data RC=
 
 
RPLI - Laoag Intl(Ph-Ar, Philippines
Distance from station: N 394km
Updated: 01/27/2021 11:00pm
Partly cloudy
Partly cloudy
 Wind from W
Wind: W 7 km/h
Temperature: 24°C
Dew Point: 21°C
Humidity: 83%
Barometer: 1011 hPa
Clouds: Partly cloudy
Visibility: 10 km
Cloud details: Few Clouds 549 m
Partly cloudy 8839 m
2021/01/27 15:00 RPLI 271500Z 27004KT 9999 FEW018 SCT290 24/21 Q1011 NOSIG RMK A2985
RPVM - Mactan-Cebu, Philippines
Distance from station: SE 582km
Updated: 01/27/2021 11:00pm
Mostly cloudy
Mostly cloudy
 Wind from N
Wind: N 9 km/h
Temperature: 26°C
Dew Point: 23°C
Humidity: 84%
Barometer: 1010 hPa
Clouds: Mostly cloudy
Visibility: 10 km
Cloud details: Few Clouds 610 m
Mostly cloudy 3048 m
2021/01/27 15:00 RPVM 271500Z 01005KT 9999 FEW020 BKN100 26/23 Q1010 RMK A2983
 
RPVP - Puerto Princesa, Philippines
Distance from station: SSW 598km
Updated: 01/27/2021 2:00am
NOT Current
Few Clouds
Few Clouds
 Wind from W
Wind: W 7 km/h
Temperature: 24°C
Dew Point: 21°C
Humidity: 83%
Barometer: 1009 hPa
Clouds: Few Clouds
Visibility: 10 km
Cloud details: Few Clouds 610 m
2021/01/26 18:00 RPVP 261800Z 27004KT 9999 FEW020 24/21 Q1009 RMK A2980
RPVD - Dumaguete/Negros, Philippines
Distance from station: SSE 643km
Updated: 01/27/2021 2:00am
NOT Current
Mostly cloudy
Mostly cloudy
 Wind from calm
Wind: Calm
Temperature: 27°C
Heat Index: 31°C
Dew Point: 24°C
Humidity: 84%
Barometer: 1008 hPa
Clouds: Mostly cloudy
Visibility: 10 km
Cloud details: Partly cloudy 457 m
Mostly cloudy 2134 m
2021/01/26 18:00 RPVD 261800Z 00000KT 9999 SCT015 BKN070 27/24 Q1008 RMK A2977
 
RPMZ - Zamboanga (civ/A, Philippines
Distance from station: S 868km
Updated: 01/27/2021 11:00pm
Overcast
Overcast
 Wind from calm
Wind: Calm
Temperature: 25°C
Dew Point: 24°C
Humidity: 94%
Barometer: 1009 hPa
Clouds: Overcast
Visibility: 10 km
Cloud details: Few Clouds 518 m
Overcast 9144 m
2021/01/27 15:00 RPMZ 271500Z 00000KT 9999 FEW017 OVC300 25/24 Q1009 RMK A2980
RPMD - Davao/Francisco, Philippines
Distance from station: SSE 980km
Updated: 01/27/2021 11:00pm
Mostly cloudy
Mostly cloudy
 Wind from N
Wind: N 7 km/h
Temperature: 26°C
Dew Point: 22°C
Humidity: 79%
Barometer: 1009 hPa
Clouds: Mostly cloudy
Visibility: 10 km
Cloud details: Few Clouds 488 m
Partly cloudy 2743 m
Mostly cloudy 7925 m
2021/01/27 15:00 RPMD 271500Z 36004KT 330V030 9999 FEW016 SCT090 BKN260 26/22 Q1009 RMK A2980